Saint Joseph, Tennessee
Current Conditions -  °F | °C
As of 7:53 PM on Wednesday 26 Nov 2014 (Local Time) from KMSL Reporting Station
Clear Clear  
Wind Chill: 39°   Ceiling: Unl
Heat Index: 46°   Visibility: 10mi
Dew Point: 32°   Wind: 17mph
Humidity: 58%   Direction: 280°W
Pressure: 30.1"   Gusts: NA
Location:  35.04°N, 87.51°W
Report Text: KMSL 270153Z AUTO 28015KT 10SM CLR 08/00 A3010 RMK AO2 PK WND 29030/0106 SLP196 T00780000 $
Loading
Personal Weather Stations






























Interactive Weather Map New forecast layout! Learn more

10-Day Weather Forecast

Advertisements
Track Severe Weather on mobile